createdAt,value
2023-04-02T00:04:16.923Z,0.13
2023-04-02T00:08:23.790Z,0.15
2023-04-02T00:12:28.046Z,0.13
2023-04-02T00:16:33.484Z,0.10
2023-04-02T00:20:43.171Z,0.30
2023-04-02T00:24:46.415Z,0.30
2023-04-02T00:28:49.622Z,0.30
2023-04-02T00:32:54.172Z,0.20
2023-04-02T00:36:58.363Z,0.25
2023-04-02T00:41:04.920Z,0.20
2023-04-02T00:45:19.336Z,0.32
2023-04-02T00:49:31.262Z,1.65
2023-04-02T00:53:37.436Z,0.30
2023-04-02T00:57:43.184Z,0.22
2023-04-02T01:01:46.918Z,0.73
2023-04-02T01:05:57.488Z,0.40
2023-04-02T01:10:16.192Z,0.30
2023-04-02T01:14:26.939Z,0.55
2023-04-02T01:18:46.860Z,0.20
2023-04-02T01:22:57.943Z,0.32
2023-04-02T01:27:03.554Z,0.20
2023-04-02T01:31:08.184Z,10.13
2023-04-02T01:35:12.151Z,0.38
2023-04-02T01:39:40.015Z,0.32
2023-04-02T01:43:52.245Z,0.20
2023-04-02T01:47:57.672Z,0.17
2023-04-02T01:52:01.520Z,0.38
2023-04-02T01:56:07.675Z,0.80
2023-04-02T02:00:16.383Z,0.40
2023-04-02T02:04:20.964Z,0.10
2023-04-02T02:08:34.843Z,0.35
2023-04-02T02:12:37.759Z,0.73
2023-04-02T02:16:43.166Z,0.40
2023-04-02T02:20:48.588Z,0.10
2023-04-02T02:24:52.006Z,0.82
2023-04-02T02:28:58.757Z,0.25
2023-04-02T02:33:09.348Z,0.82
2023-04-02T02:37:17.480Z,0.93
2023-04-02T02:41:26.583Z,0.20
2023-04-02T02:45:35.732Z,0.65
2023-04-02T02:49:42.767Z,0.20
2023-04-02T02:53:53.940Z,0.20
2023-04-02T02:58:01.332Z,0.90
2023-04-02T03:02:07.280Z,0.28
2023-04-02T03:06:17.098Z,0.10
2023-04-02T03:10:29.208Z,2.28
2023-04-02T03:14:37.308Z,0.97
2023-04-02T03:18:47.634Z,0.50
2023-04-02T03:22:59.154Z,3.20
2023-04-02T03:27:08.776Z,0.30
2023-04-02T03:31:19.307Z,0.20
2023-04-02T03:35:29.640Z,2.25
2023-04-02T03:39:37.945Z,0.10
2023-04-02T03:43:47.016Z,0.77
2023-04-02T03:47:55.992Z,0.10
2023-04-02T03:52:04.488Z,0.98
2023-04-02T03:56:08.562Z,0.30
2023-04-02T04:00:20.925Z,0.63
2023-04-02T04:04:27.587Z,1.08
2023-04-02T04:08:38.266Z,0.47
2023-04-02T04:12:45.215Z,0.20
2023-04-02T04:16:54.790Z,4.40
2023-04-02T04:21:03.408Z,0.50
2023-04-02T04:25:19.761Z,2.35
2023-04-02T04:29:39.262Z,0.30
2023-04-02T04:33:50.822Z,0.60
2023-04-02T04:37:59.937Z,1.13
2023-04-02T04:42:07.223Z,0.45
2023-04-02T04:46:15.045Z,1.75
2023-04-02T04:50:30.106Z,1.50
2023-04-02T04:54:33.999Z,0.93
2023-04-02T04:58:45.129Z,0.30
2023-04-02T05:02:53.214Z,3.65
2023-04-02T05:07:05.118Z,0.85
2023-04-02T05:11:13.705Z,1.05
2023-04-02T05:15:21.830Z,0.40
2023-04-02T05:19:32.734Z,2.10
2023-04-02T05:23:46.497Z,2.15
2023-04-02T05:27:56.058Z,0.32
2023-04-02T05:32:04.621Z,0.80
2023-04-02T05:36:11.989Z,2.78
2023-04-02T05:40:24.654Z,1.48
2023-04-02T05:44:31.188Z,1.50
2023-04-02T05:48:39.268Z,0.90
2023-04-02T05:52:47.969Z,1.20
2023-04-02T05:56:57.834Z,1.80
2023-04-02T06:01:18.088Z,0.80
2023-04-02T06:05:25.983Z,0.60
2023-04-02T06:09:48.238Z,2.08
2023-04-02T06:13:52.907Z,1.10
2023-04-02T06:18:02.364Z,7.93
2023-04-02T06:22:18.103Z,2.45
2023-04-02T06:26:28.351Z,0.17
2023-04-02T06:30:36.905Z,0.20
2023-04-02T06:34:42.568Z,0.75
2023-04-02T06:38:46.450Z,0.32
2023-04-02T06:42:52.923Z,0.75
2023-04-02T06:47:00.284Z,0.35
2023-04-02T06:51:08.917Z,1.17
2023-04-02T06:55:30.438Z,6.40
2023-04-02T06:59:33.810Z,7.30
2023-04-02T07:03:38.142Z,2.30
2023-04-02T07:07:41.540Z,0.77
2023-04-02T07:11:44.511Z,1.60
2023-04-02T07:15:49.557Z,0.63
2023-04-02T07:19:53.967Z,0.40
2023-04-02T07:23:57.625Z,0.65
2023-04-02T07:28:01.575Z,1.60
2023-04-02T07:32:04.797Z,1.33
2023-04-02T07:36:13.864Z,0.70
2023-04-02T07:40:20.977Z,0.40
2023-04-02T07:44:24.408Z,0.10
2023-04-02T07:48:27.917Z,0.70
2023-04-02T07:52:33.143Z,2.75
2023-04-02T07:56:37.141Z,0.52
2023-04-02T08:00:40.739Z,0.20
2023-04-02T08:04:44.121Z,0.85
2023-04-02T08:08:49.156Z,1.30
2023-04-02T08:12:52.726Z,3.80
2023-04-02T08:16:57.347Z,0.10
2023-04-02T08:21:01.690Z,1.15
2023-04-02T08:25:07.536Z,4.97
2023-04-02T08:29:11.458Z,0.30
2023-04-02T08:33:17.179Z,0.52
2023-04-02T08:37:25.670Z,1.15
2023-04-02T08:41:32.372Z,0.75
2023-04-02T08:45:48.188Z,0.25
2023-04-02T08:49:58.088Z,0.30
2023-04-02T08:54:09.868Z,0.50
2023-04-02T08:58:29.946Z,1.30
2023-04-02T09:02:43.527Z,0.30
2023-04-02T09:11:04.735Z,0.17
2023-04-02T09:15:20.587Z,0.22
2023-04-02T09:19:26.462Z,0.15
2023-04-02T09:23:29.637Z,0.80
2023-04-02T09:27:34.155Z,0.20
2023-04-02T09:31:43.414Z,1.75
2023-04-02T09:40:17.879Z,0.35
2023-04-02T09:44:24.280Z,0.25
2023-04-02T09:52:38.497Z,1.00
2023-04-02T09:56:43.199Z,1.48
2023-04-02T10:00:56.315Z,3.85
2023-04-02T10:09:33.790Z,0.30
2023-04-02T10:13:53.567Z,0.20
2023-04-02T10:22:13.795Z,1.20
2023-04-02T10:26:46.886Z,0.63
2023-04-02T10:30:59.180Z,0.20
2023-04-02T10:35:05.290Z,0.47
2023-04-02T10:39:15.574Z,10.30
2023-04-02T10:43:59.308Z,0.45
2023-04-02T10:48:17.657Z,1.25
2023-04-02T10:52:25.327Z,2.33
2023-04-02T10:56:37.770Z,0.93
2023-04-02T11:00:50.541Z,0.88
2023-04-02T11:05:01.938Z,1.45
2023-04-02T11:09:08.990Z,0.60
2023-04-02T11:13:19.828Z,0.50
2023-04-02T11:17:23.614Z,0.60
2023-04-02T11:21:57.152Z,1.83
2023-04-02T11:26:38.737Z,0.20
2023-04-02T11:30:43.129Z,0.30
2023-04-02T11:35:21.267Z,0.50
2023-04-02T11:39:57.308Z,0.40
2023-04-02T11:44:04.115Z,0.10
2023-04-02T11:48:31.379Z,0.45
2023-04-02T11:52:51.310Z,0.70
2023-04-02T11:57:13.493Z,0.10
2023-04-02T12:01:53.123Z,0.30
2023-04-02T12:06:04.122Z,0.10
2023-04-02T12:10:24.235Z,0.10
2023-04-02T12:14:54.109Z,0.22
2023-04-02T12:23:33.690Z,0.10
2023-04-02T12:27:49.733Z,0.68
2023-04-02T12:32:23.305Z,0.17
2023-04-02T12:36:56.538Z,0.10
2023-04-02T12:45:54.338Z,0.68
2023-04-02T12:50:08.224Z,0.20
2023-04-02T12:54:26.840Z,0.00
2023-04-02T12:58:49.541Z,0.10
2023-04-02T13:03:14.988Z,0.10
2023-04-02T13:07:23.273Z,0.00
2023-04-02T13:11:35.923Z,0.00
2023-04-02T13:15:39.353Z,1.55
2023-04-02T13:19:42.609Z,2.63
2023-04-02T13:23:47.601Z,0.57
2023-04-02T13:27:51.104Z,0.08
2023-04-02T13:31:57.512Z,0.20
2023-04-02T13:36:00.598Z,0.20
2023-04-02T13:40:09.254Z,0.20
2023-04-02T13:44:28.490Z,0.30
2023-04-02T13:48:32.203Z,2.13
2023-04-02T13:52:36.822Z,0.40
2023-04-02T13:56:43.695Z,0.17
2023-04-02T14:00:48.146Z,3.40
2023-04-02T14:04:54.323Z,0.68
2023-04-02T14:09:07.025Z,0.35
2023-04-02T14:13:23.198Z,1.08
2023-04-02T14:17:36.495Z,1.70
2023-04-02T14:21:51.417Z,0.65
2023-04-02T14:26:03.895Z,0.20
2023-04-02T14:30:18.132Z,0.50
2023-04-02T14:34:32.367Z,0.40
2023-04-02T14:38:40.844Z,1.52
2023-04-02T14:42:49.310Z,0.70
2023-04-02T14:46:57.859Z,2.30
2023-04-02T14:51:06.943Z,2.10
2023-04-02T14:55:15.677Z,2.95
2023-04-02T14:59:27.882Z,2.85
2023-04-02T15:03:37.959Z,2.55
2023-04-02T15:07:46.580Z,3.28
2023-04-02T15:11:53.258Z,4.28
2023-04-02T15:16:00.531Z,2.80
2023-04-02T15:20:14.959Z,4.80
2023-04-02T15:24:28.290Z,5.93
2023-04-02T15:28:37.327Z,3.75
2023-04-02T15:32:41.871Z,1.88
2023-04-02T15:37:06.536Z,1.65
2023-04-02T15:41:16.819Z,1.75
2023-04-02T15:45:28.562Z,1.90
2023-04-02T15:49:44.339Z,1.10
2023-04-02T15:53:57.996Z,1.30
2023-04-02T15:58:26.585Z,5.72
2023-04-02T16:02:58.809Z,1.13
2023-04-02T16:07:20.084Z,1.80
2023-04-02T16:11:27.647Z,1.75
2023-04-02T16:15:38.264Z,3.50
2023-04-02T16:19:46.502Z,3.25
2023-04-02T16:23:50.638Z,1.15
2023-04-02T16:28:06.931Z,3.83
2023-04-02T16:32:22.116Z,1.75
2023-04-02T16:36:36.657Z,2.05
2023-04-02T16:40:57.083Z,2.53
2023-04-02T16:45:19.174Z,1.75
2023-04-02T16:49:36.553Z,2.97
2023-04-02T16:54:00.611Z,1.73
2023-04-02T16:58:21.075Z,2.60
2023-04-02T17:02:40.092Z,3.47
2023-04-02T17:06:45.032Z,3.58
2023-04-02T17:10:52.380Z,2.70
2023-04-02T17:15:00.190Z,2.53
2023-04-02T17:19:15.700Z,3.78
2023-04-02T17:23:22.181Z,2.58
2023-04-02T17:27:29.613Z,3.25
2023-04-02T17:31:37.621Z,2.53
2023-04-02T17:35:54.059Z,1.88
2023-04-02T17:40:10.157Z,4.38
2023-04-02T17:44:29.675Z,6.05
2023-04-02T17:48:42.563Z,5.82
2023-04-02T17:57:16.885Z,5.75
2023-04-02T18:01:26.662Z,6.30
2023-04-02T18:05:33.052Z,5.63
2023-04-02T18:09:45.703Z,59.35
2023-04-02T18:13:55.592Z,46.55
2023-04-02T18:18:08.461Z,17.70
2023-04-02T18:26:34.358Z,5.82
2023-04-02T18:30:42.179Z,5.60
2023-04-02T18:35:00.140Z,5.30
2023-04-02T18:39:16.456Z,6.50
2023-04-02T18:43:38.437Z,11.38
2023-04-02T18:47:53.021Z,6.70
2023-04-02T18:52:01.062Z,3.88
2023-04-02T18:56:09.667Z,6.45
2023-04-02T19:00:30.168Z,6.13
2023-04-02T19:04:36.805Z,3.42
2023-04-02T19:08:49.554Z,6.55
2023-04-02T19:12:53.736Z,8.55
2023-04-02T19:17:15.183Z,7.78
2023-04-02T19:21:28.347Z,6.10
2023-04-02T19:25:47.863Z,5.47
2023-04-02T19:30:04.058Z,4.45
2023-04-02T19:34:21.603Z,7.10
2023-04-02T19:38:51.009Z,4.13
2023-04-02T19:42:55.567Z,6.90
2023-04-02T19:46:59.620Z,5.70
2023-04-02T19:51:04.297Z,3.22
2023-04-02T19:55:08.787Z,8.20
2023-04-02T19:59:18.047Z,5.03
2023-04-02T20:03:23.974Z,6.70
2023-04-02T20:07:28.561Z,5.03
2023-04-02T20:11:33.070Z,5.32
2023-04-02T20:15:37.387Z,4.75
2023-04-02T20:19:41.454Z,3.33
2023-04-02T20:23:46.380Z,7.30
2023-04-02T20:27:49.736Z,8.40
2023-04-02T20:31:53.750Z,5.10
2023-04-02T20:36:05.441Z,3.28
2023-04-02T20:40:12.415Z,5.63
2023-04-02T20:44:16.236Z,5.20
2023-04-02T20:48:22.436Z,7.32
2023-04-02T20:52:26.575Z,4.40
2023-04-02T20:56:32.980Z,4.93
2023-04-02T21:00:36.512Z,4.63
2023-04-02T21:04:39.756Z,5.97
2023-04-02T21:08:43.952Z,4.93
2023-04-02T21:12:49.853Z,5.10
2023-04-02T21:16:53.797Z,3.97
2023-04-02T21:21:01.836Z,4.07
2023-04-02T21:25:06.068Z,6.38
2023-04-02T21:29:12.679Z,4.47
2023-04-02T21:33:16.226Z,4.90
2023-04-02T21:37:19.516Z,3.25
2023-04-02T21:41:24.910Z,3.97
2023-04-02T21:45:29.861Z,3.47
2023-04-02T21:49:33.400Z,2.63
2023-04-02T21:53:37.239Z,3.10
2023-04-02T21:57:41.251Z,4.70
2023-04-02T22:01:47.476Z,3.45
2023-04-02T22:05:50.860Z,3.75
2023-04-02T22:09:53.887Z,2.88
2023-04-02T22:13:57.583Z,6.18
2023-04-02T22:18:02.213Z,3.58
2023-04-02T22:22:06.351Z,7.65
2023-04-02T22:26:10.286Z,2.35
2023-04-02T22:30:14.780Z,4.20
2023-04-02T22:34:19.866Z,6.38
2023-04-02T22:38:23.118Z,3.83
2023-04-02T22:42:26.968Z,2.42
2023-04-02T22:46:32.172Z,2.13
2023-04-02T22:50:37.089Z,6.78
2023-04-02T22:54:40.975Z,6.80
2023-04-02T22:58:45.010Z,4.85
2023-04-02T23:02:49.228Z,2.85
2023-04-02T23:06:54.209Z,2.97
2023-04-02T23:11:03.703Z,3.58
2023-04-02T23:15:08.260Z,2.42
2023-04-02T23:19:12.336Z,2.85
2023-04-02T23:23:17.029Z,2.38
2023-04-02T23:27:21.802Z,2.92
2023-04-02T23:31:25.646Z,6.55
2023-04-02T23:35:29.717Z,6.38
2023-04-02T23:39:34.216Z,3.80
2023-04-02T23:43:37.577Z,5.55
2023-04-02T23:47:40.706Z,3.22
2023-04-02T23:51:44.479Z,3.13
2023-04-02T23:55:48.885Z,6.63
2023-04-02T23:59:53.031Z,3.33
